DLH262 EDDH-EHAM
Flight info
| Callsign | DLH262 |
|---|---|
| Flight time | 0h 47m |
| Altitude | 34000 |
| Route | WSN5G/33 WSN N125 BLUFA |
| Aircraft | E195/M-SDE3GILORVW/S |
Departure
| Time | 2026-05-07 18:19 |
|---|---|
| Airport | Hamburg Helmut Schmidt Airport (EDDH) |
Arrival
| Time | 2026-05-07 19:06 |
|---|---|
| Airport | Amsterdam Airport Schiphol (EHAM) |
| Time | Latitude | Longitude | Altitude | Speed | Heading |
|---|---|---|---|---|---|
| 2026-05-07 17:45 | 53.63453 | 10.00325 | 50 ft | 0 kts | 84° |
| 2026-05-07 18:04 | 53.63452 | 10.00317 | 49 ft | 2 kts | 84° |
| 2026-05-07 18:04 | 53.63451 | 10.00290 | 49 ft | 2 kts | 84° |
| 2026-05-07 18:05 | 53.63449 | 10.00262 | 46 ft | 2 kts | 86° |
| 2026-05-07 18:05 | 53.63449 | 10.00234 | 46 ft | 2 kts | 104° |
| 2026-05-07 18:05 | 53.63458 | 10.00217 | 45 ft | 1 kts | 181° |
| 2026-05-07 18:06 | 53.63455 | 10.00217 | 46 ft | 0 kts | 180° |
| 2026-05-07 18:07 | 53.63444 | 10.00218 | 50 ft | 5 kts | 176° |
| 2026-05-07 18:07 | 53.63390 | 10.00225 | 50 ft | 9 kts | 175° |
| 2026-05-07 18:07 | 53.63325 | 10.00233 | 49 ft | 0 kts | 176° |
| 2026-05-07 18:08 | 53.63316 | 10.00235 | 49 ft | 3 kts | 175° |
| 2026-05-07 18:08 | 53.63285 | 10.00239 | 49 ft | 7 kts | 175° |
| 2026-05-07 18:08 | 53.63205 | 10.00248 | 48 ft | 16 kts | 176° |
| 2026-05-07 18:08 | 53.63086 | 10.00261 | 46 ft | 18 kts | 180° |
| 2026-05-07 18:09 | 53.62978 | 10.00167 | 45 ft | 19 kts | 214° |
| 2026-05-07 18:09 | 53.62936 | 10.00082 | 44 ft | 7 kts | 245° |
| 2026-05-07 18:09 | 53.62919 | 9.99999 | 44 ft | 8 kts | 250° |
| 2026-05-07 18:09 | 53.62898 | 9.99918 | 44 ft | 0 kts | 243° |
| 2026-05-07 18:11 | 53.62896 | 9.99911 | 44 ft | 0 kts | 243° |
| 2026-05-07 18:15 | 53.62880 | 9.99858 | 45 ft | 12 kts | 243° |
| 2026-05-07 18:15 | 53.62883 | 9.99733 | 46 ft | 8 kts | 329° |
| 2026-05-07 18:16 | 53.62887 | 9.99730 | 46 ft | 0 kts | 332° |
| 2026-05-07 18:18 | 53.62888 | 9.99728 | 46 ft | 2 kts | 332° |
| 2026-05-07 18:18 | 53.63052 | 9.99593 | 46 ft | 66 kts | 334° |
| 2026-05-07 18:18 | 53.63721 | 9.99034 | 49 ft | 148 kts | 340° |
| 2026-05-07 18:19 | 53.64756 | 9.98156 | 766 ft | 167 kts | 335° |
| 2026-05-07 18:19 | 53.65766 | 9.97226 | 1889 ft | 177 kts | 334° |
| 2026-05-07 18:19 | 53.66885 | 9.96096 | 2721 ft | 195 kts | 331° |
| 2026-05-07 18:19 | 53.68061 | 9.94873 | 3760 ft | 206 kts | 330° |
| 2026-05-07 18:20 | 53.69321 | 9.93462 | 4462 ft | 229 kts | 323° |
| 2026-05-07 18:20 | 53.70370 | 9.91634 | 5043 ft | 215 kts | 307° |
| 2026-05-07 18:20 | 53.70941 | 9.89237 | 5149 ft | 230 kts | 274° |
| 2026-05-07 18:20 | 53.70786 | 9.86551 | 6001 ft | 226 kts | 258° |
| 2026-05-07 18:21 | 53.70386 | 9.84009 | 6880 ft | 227 kts | 252° |
| 2026-05-07 18:21 | 53.69889 | 9.81434 | 7301 ft | 232 kts | 251° |
| 2026-05-07 18:21 | 53.69374 | 9.78844 | 7834 ft | 233 kts | 251° |
| 2026-05-07 18:21 | 53.68862 | 9.76242 | 8363 ft | 234 kts | 251° |
| 2026-05-07 18:22 | 53.68351 | 9.73625 | 8883 ft | 236 kts | 251° |
| 2026-05-07 18:22 | 53.68006 | 9.71862 | 9263 ft | 236 kts | 252° |
| 2026-05-07 18:22 | 53.67315 | 9.68341 | 9960 ft | 241 kts | 251° |
| 2026-05-07 18:22 | 53.66767 | 9.65563 | 10183 ft | 255 kts | 252° |
| 2026-05-07 18:23 | 53.66208 | 9.62732 | 10655 ft | 256 kts | 251° |
| 2026-05-07 18:23 | 53.65514 | 9.59952 | 11125 ft | 258 kts | 244° |
| 2026-05-07 18:23 | 53.64685 | 9.57290 | 11592 ft | 259 kts | 241° |
| 2026-05-07 18:23 | 53.63790 | 9.54664 | 12058 ft | 260 kts | 238° |
| 2026-05-07 18:24 | 53.62761 | 9.52140 | 12524 ft | 262 kts | 235° |
| 2026-05-07 18:24 | 53.61694 | 9.49626 | 12983 ft | 263 kts | 234° |
| 2026-05-07 18:24 | 53.60626 | 9.47133 | 13451 ft | 264 kts | 234° |
| 2026-05-07 18:24 | 53.59549 | 9.44623 | 13900 ft | 266 kts | 234° |
| 2026-05-07 18:25 | 53.58459 | 9.42087 | 14307 ft | 267 kts | 234° |
| 2026-05-07 18:25 | 53.57380 | 9.39579 | 14704 ft | 269 kts | 234° |
| 2026-05-07 18:25 | 53.56266 | 9.36992 | 15103 ft | 271 kts | 234° |
| 2026-05-07 18:25 | 53.55154 | 9.34411 | 15494 ft | 272 kts | 234° |
| 2026-05-07 18:26 | 53.54053 | 9.31860 | 15887 ft | 275 kts | 234° |
| 2026-05-07 18:26 | 53.52924 | 9.29245 | 16417 ft | 280 kts | 234° |
| 2026-05-07 18:26 | 53.51727 | 9.26477 | 16513 ft | 304 kts | 234° |
| 2026-05-07 18:26 | 53.50448 | 9.23524 | 16708 ft | 322 kts | 234° |
| 2026-05-07 18:27 | 53.49098 | 9.20410 | 16981 ft | 337 kts | 234° |
| 2026-05-07 18:27 | 53.47708 | 9.17208 | 17526 ft | 342 kts | 234° |
| 2026-05-07 18:27 | 53.46298 | 9.13961 | 18151 ft | 346 kts | 234° |
| 2026-05-07 18:27 | 53.44871 | 9.10685 | 18757 ft | 349 kts | 234° |
| 2026-05-07 18:28 | 53.43434 | 9.07385 | 19349 ft | 351 kts | 234° |
| 2026-05-07 18:28 | 53.41986 | 9.04069 | 19960 ft | 354 kts | 234° |
| 2026-05-07 18:28 | 53.40528 | 9.00730 | 20561 ft | 356 kts | 234° |
| 2026-05-07 18:28 | 53.39058 | 8.97369 | 21118 ft | 359 kts | 234° |
| 2026-05-07 18:29 | 53.37573 | 8.93981 | 21658 ft | 362 kts | 234° |
| 2026-05-07 18:29 | 53.36149 | 8.90483 | 22189 ft | 365 kts | 239° |
| 2026-05-07 18:29 | 53.34895 | 8.86847 | 22719 ft | 367 kts | 242° |
| 2026-05-07 18:29 | 53.33777 | 8.82989 | 23245 ft | 370 kts | 249° |
| 2026-05-07 18:30 | 53.32856 | 8.78959 | 23768 ft | 373 kts | 249° |
| 2026-05-07 18:30 | 53.31937 | 8.74887 | 24212 ft | 375 kts | 250° |
| 2026-05-07 18:30 | 53.31014 | 8.70792 | 24661 ft | 378 kts | 249° |
| 2026-05-07 18:30 | 53.30107 | 8.66653 | 25107 ft | 380 kts | 250° |
| 2026-05-07 18:31 | 53.29196 | 8.62486 | 25527 ft | 383 kts | 250° |
| 2026-05-07 18:31 | 53.28280 | 8.58286 | 25974 ft | 385 kts | 250° |
| 2026-05-07 18:31 | 53.27334 | 8.54090 | 26636 ft | 388 kts | 249° |
| 2026-05-07 18:31 | 53.26441 | 8.49824 | 27233 ft | 392 kts | 253° |
| 2026-05-07 18:32 | 53.25575 | 8.45489 | 27820 ft | 395 kts | 248° |
| 2026-05-07 18:32 | 53.24481 | 8.41326 | 28381 ft | 399 kts | 247° |
| 2026-05-07 18:32 | 53.23446 | 8.37028 | 28918 ft | 402 kts | 248° |
| 2026-05-07 18:32 | 53.22382 | 8.32681 | 29476 ft | 406 kts | 248° |
| 2026-05-07 18:33 | 53.21317 | 8.28293 | 29915 ft | 411 kts | 248° |
| 2026-05-07 18:33 | 53.20234 | 8.23844 | 30263 ft | 417 kts | 248° |
| 2026-05-07 18:33 | 53.19137 | 8.19351 | 30816 ft | 417 kts | 248° |
| 2026-05-07 18:33 | 53.18044 | 8.14876 | 31351 ft | 417 kts | 248° |
| 2026-05-07 18:34 | 53.16951 | 8.10414 | 31871 ft | 416 kts | 248° |
| 2026-05-07 18:34 | 53.15853 | 8.05941 | 32407 ft | 416 kts | 248° |
| 2026-05-07 18:34 | 53.14757 | 8.01483 | 32896 ft | 416 kts | 247° |
| 2026-05-07 18:34 | 53.13659 | 7.97030 | 33383 ft | 416 kts | 247° |
| 2026-05-07 18:35 | 53.12557 | 7.92567 | 33874 ft | 416 kts | 247° |
| 2026-05-07 18:35 | 53.11494 | 7.88272 | 34007 ft | 399 kts | 247° |
| 2026-05-07 18:35 | 53.10429 | 7.83980 | 34050 ft | 405 kts | 247° |
| 2026-05-07 18:36 | 53.08230 | 7.75136 | 34113 ft | 422 kts | 247° |
| 2026-05-07 18:36 | 53.05982 | 7.66132 | 33818 ft | 420 kts | 247° |
| 2026-05-07 18:36 | 53.04866 | 7.61679 | 33263 ft | 417 kts | 247° |
| 2026-05-07 18:37 | 53.03750 | 7.57230 | 32717 ft | 414 kts | 247° |
| 2026-05-07 18:37 | 53.02643 | 7.52825 | 32195 ft | 415 kts | 247° |
| 2026-05-07 18:37 | 53.01538 | 7.48446 | 31691 ft | 416 kts | 247° |
| 2026-05-07 18:37 | 53.00419 | 7.44012 | 31190 ft | 417 kts | 247° |
| 2026-05-07 18:38 | 52.99297 | 7.39575 | 30672 ft | 417 kts | 247° |
| 2026-05-07 18:38 | 52.98187 | 7.35131 | 30120 ft | 417 kts | 249° |
| 2026-05-07 18:38 | 52.97204 | 7.30610 | 29499 ft | 417 kts | 251° |
| 2026-05-07 18:38 | 52.96281 | 7.26048 | 28884 ft | 416 kts | 252° |
| 2026-05-07 18:39 | 52.95651 | 7.21398 | 28272 ft | 412 kts | 262° |
| 2026-05-07 18:39 | 52.95547 | 7.16673 | 27675 ft | 409 kts | 273° |
| 2026-05-07 18:39 | 52.95971 | 7.12034 | 27092 ft | 407 kts | 283° |
| 2026-05-07 18:39 | 52.96668 | 7.07499 | 26524 ft | 403 kts | 280° |
| 2026-05-07 18:40 | 52.96942 | 7.02889 | 25733 ft | 401 kts | 269° |
| 2026-05-07 18:40 | 52.96692 | 6.98324 | 25006 ft | 396 kts | 259° |
| 2026-05-07 18:40 | 52.95808 | 6.94103 | 24286 ft | 392 kts | 240° |
| 2026-05-07 18:40 | 52.94076 | 6.90660 | 23553 ft | 389 kts | 220° |
| 2026-05-07 18:41 | 52.91998 | 6.87837 | 22777 ft | 384 kts | 226° |
| 2026-05-07 18:41 | 52.90508 | 6.84221 | 22014 ft | 380 kts | 245° |
| 2026-05-07 18:41 | 52.89508 | 6.80203 | 21307 ft | 375 kts | 249° |
| 2026-05-07 18:41 | 52.88579 | 6.76189 | 20613 ft | 372 kts | 249° |
| 2026-05-07 18:42 | 52.87643 | 6.72221 | 19939 ft | 368 kts | 248° |
| 2026-05-07 18:42 | 52.86713 | 6.68352 | 19276 ft | 365 kts | 248° |
| 2026-05-07 18:42 | 52.85767 | 6.64476 | 18622 ft | 362 kts | 248° |
| 2026-05-07 18:42 | 52.84719 | 6.60715 | 17929 ft | 359 kts | 242° |
| 2026-05-07 18:43 | 52.83584 | 6.57071 | 17250 ft | 355 kts | 243° |
| 2026-05-07 18:43 | 52.82449 | 6.53467 | 16575 ft | 351 kts | 242° |
| 2026-05-07 18:43 | 52.81321 | 6.49925 | 15955 ft | 347 kts | 242° |
| 2026-05-07 18:43 | 52.80197 | 6.46409 | 15321 ft | 344 kts | 242° |
| 2026-05-07 18:44 | 52.79089 | 6.42938 | 14699 ft | 341 kts | 242° |
| 2026-05-07 18:44 | 52.77987 | 6.39494 | 14113 ft | 337 kts | 242° |
| 2026-05-07 18:44 | 52.76898 | 6.36095 | 13488 ft | 334 kts | 242° |
| 2026-05-07 18:44 | 52.75814 | 6.32718 | 12838 ft | 331 kts | 242° |
| 2026-05-07 18:45 | 52.74742 | 6.29378 | 12192 ft | 328 kts | 242° |
| 2026-05-07 18:45 | 52.73688 | 6.26099 | 11572 ft | 326 kts | 243° |
| 2026-05-07 18:45 | 52.72624 | 6.22794 | 11226 ft | 313 kts | 243° |
| 2026-05-07 18:45 | 52.71648 | 6.19765 | 10465 ft | 296 kts | 243° |
| 2026-05-07 18:46 | 52.70689 | 6.16792 | 10248 ft | 293 kts | 243° |
| 2026-05-07 18:46 | 52.69744 | 6.13865 | 10155 ft | 286 kts | 243° |
| 2026-05-07 18:46 | 52.68815 | 6.10990 | 10098 ft | 284 kts | 243° |
| 2026-05-07 18:46 | 52.67884 | 6.08109 | 10083 ft | 285 kts | 243° |
| 2026-05-07 18:47 | 52.66950 | 6.05229 | 10088 ft | 285 kts | 243° |
| 2026-05-07 18:47 | 52.66013 | 6.02343 | 10097 ft | 285 kts | 243° |
| 2026-05-07 18:47 | 52.65080 | 5.99473 | 10096 ft | 285 kts | 243° |
| 2026-05-07 18:47 | 52.64147 | 5.96602 | 10086 ft | 284 kts | 243° |
| 2026-05-07 18:48 | 52.63212 | 5.93733 | 10085 ft | 284 kts | 243° |
| 2026-05-07 18:48 | 52.62289 | 5.90903 | 10090 ft | 285 kts | 243° |
| 2026-05-07 18:48 | 52.61355 | 5.88039 | 10088 ft | 284 kts | 243° |
| 2026-05-07 18:48 | 52.60415 | 5.85169 | 9971 ft | 283 kts | 243° |
| 2026-05-07 18:49 | 52.59482 | 5.82314 | 9479 ft | 283 kts | 242° |
| 2026-05-07 18:49 | 52.58555 | 5.79479 | 9031 ft | 281 kts | 242° |
| 2026-05-07 18:49 | 52.57632 | 5.76667 | 8592 ft | 279 kts | 242° |
| 2026-05-07 18:49 | 52.56713 | 5.73869 | 8163 ft | 277 kts | 242° |
| 2026-05-07 18:50 | 52.55799 | 5.71088 | 7725 ft | 276 kts | 241° |
| 2026-05-07 18:50 | 52.54890 | 5.68329 | 7307 ft | 274 kts | 241° |
| 2026-05-07 18:50 | 52.53984 | 5.65578 | 7159 ft | 273 kts | 241° |
| 2026-05-07 18:50 | 52.53081 | 5.62843 | 7112 ft | 272 kts | 241° |
| 2026-05-07 18:51 | 52.52172 | 5.60125 | 7079 ft | 271 kts | 238° |
| 2026-05-07 18:51 | 52.50998 | 5.57765 | 7075 ft | 271 kts | 226° |
| 2026-05-07 18:51 | 52.49784 | 5.55397 | 7082 ft | 271 kts | 233° |
| 2026-05-07 18:51 | 52.48790 | 5.52765 | 7078 ft | 272 kts | 240° |
| 2026-05-07 18:52 | 52.47844 | 5.50085 | 7075 ft | 272 kts | 238° |
| 2026-05-07 18:52 | 52.46873 | 5.47428 | 7076 ft | 271 kts | 238° |
| 2026-05-07 18:52 | 52.45895 | 5.44789 | 7080 ft | 272 kts | 238° |
| 2026-05-07 18:52 | 52.44907 | 5.42138 | 7074 ft | 271 kts | 238° |
| 2026-05-07 18:53 | 52.43924 | 5.39505 | 7073 ft | 271 kts | 238° |
| 2026-05-07 18:53 | 52.42937 | 5.36868 | 7081 ft | 271 kts | 238° |
| 2026-05-07 18:53 | 52.41973 | 5.34294 | 7080 ft | 271 kts | 237° |
| 2026-05-07 18:53 | 52.40987 | 5.31662 | 7072 ft | 271 kts | 238° |
| 2026-05-07 18:54 | 52.40003 | 5.29033 | 7075 ft | 271 kts | 238° |
| 2026-05-07 18:54 | 52.39020 | 5.26407 | 7084 ft | 270 kts | 237° |
| 2026-05-07 18:54 | 52.38048 | 5.23814 | 7080 ft | 271 kts | 237° |
| 2026-05-07 18:54 | 52.37063 | 5.21192 | 7071 ft | 270 kts | 237° |
| 2026-05-07 18:55 | 52.36079 | 5.18571 | 7079 ft | 270 kts | 237° |
| 2026-05-07 18:55 | 52.35091 | 5.15943 | 7088 ft | 271 kts | 237° |
| 2026-05-07 18:55 | 52.34104 | 5.13320 | 7082 ft | 271 kts | 237° |
| 2026-05-07 18:55 | 52.33119 | 5.10701 | 7075 ft | 270 kts | 238° |
| 2026-05-07 18:56 | 52.32134 | 5.08082 | 6907 ft | 270 kts | 237° |
| 2026-05-07 18:56 | 52.31155 | 5.05470 | 6505 ft | 269 kts | 237° |
| 2026-05-07 18:56 | 52.30185 | 5.02877 | 6082 ft | 268 kts | 237° |
| 2026-05-07 18:56 | 52.29216 | 5.00283 | 5651 ft | 267 kts | 237° |
| 2026-05-07 18:57 | 52.28250 | 4.97700 | 5229 ft | 266 kts | 237° |
| 2026-05-07 18:57 | 52.27285 | 4.95125 | 4813 ft | 266 kts | 238° |
| 2026-05-07 18:57 | 52.26317 | 4.92553 | 4370 ft | 265 kts | 237° |
| 2026-05-07 18:57 | 52.25363 | 4.90029 | 3962 ft | 265 kts | 237° |
| 2026-05-07 18:58 | 52.24395 | 4.87473 | 3547 ft | 265 kts | 237° |
| 2026-05-07 18:58 | 52.23418 | 4.84910 | 3170 ft | 264 kts | 238° |
| 2026-05-07 18:58 | 52.22445 | 4.82365 | 3059 ft | 265 kts | 237° |
| 2026-05-07 18:58 | 52.21465 | 4.79810 | 3015 ft | 264 kts | 237° |
| 2026-05-07 18:59 | 52.20698 | 4.77804 | 3015 ft | 265 kts | 237° |
| 2026-05-07 18:59 | 52.19735 | 4.75282 | 2986 ft | 253 kts | 237° |
| 2026-05-07 18:59 | 52.18837 | 4.72930 | 2967 ft | 238 kts | 237° |
| 2026-05-07 18:59 | 52.18046 | 4.70618 | 2960 ft | 232 kts | 251° |
| 2026-05-07 19:00 | 52.17858 | 4.68048 | 2978 ft | 235 kts | 269° |
| 2026-05-07 19:00 | 52.17869 | 4.65372 | 3009 ft | 235 kts | 271° |
| 2026-05-07 19:00 | 52.17915 | 4.62715 | 3014 ft | 235 kts | 272° |
| 2026-05-07 19:00 | 52.17972 | 4.60054 | 3038 ft | 232 kts | 272° |
| 2026-05-07 19:01 | 52.18034 | 4.57541 | 2901 ft | 213 kts | 272° |
| 2026-05-07 19:01 | 52.18091 | 4.55211 | 2602 ft | 200 kts | 273° |
| 2026-05-07 19:01 | 52.18492 | 4.53131 | 2201 ft | 192 kts | 310° |
| 2026-05-07 19:01 | 52.19641 | 4.52004 | 2054 ft | 197 kts | 353° |
| 2026-05-07 19:02 | 52.20897 | 4.52364 | 2031 ft | 178 kts | 28° |
| 2026-05-07 19:02 | 52.21980 | 4.53288 | 2045 ft | 175 kts | 31° |
| 2026-05-07 19:02 | 52.22985 | 4.54395 | 2192 ft | 175 kts | 50° |
| 2026-05-07 19:02 | 52.23612 | 4.56101 | 2182 ft | 179 kts | 63° |
| 2026-05-07 19:03 | 52.24083 | 4.57959 | 2088 ft | 176 kts | 81° |
| 2026-05-07 19:03 | 52.24091 | 4.59951 | 2035 ft | 175 kts | 90° |
| 2026-05-07 19:03 | 52.24219 | 4.61921 | 1846 ft | 176 kts | 71° |
| 2026-05-07 19:03 | 52.24850 | 4.63602 | 1475 ft | 172 kts | 52° |
| 2026-05-07 19:04 | 52.25576 | 4.65151 | 1279 ft | 172 kts | 54° |
| 2026-05-07 19:04 | 52.26236 | 4.66757 | 993 ft | 164 kts | 58° |
| 2026-05-07 19:04 | 52.26814 | 4.68298 | 696 ft | 150 kts | 58° |
| 2026-05-07 19:04 | 52.27351 | 4.69693 | 476 ft | 138 kts | 58° |
| 2026-05-07 19:05 | 52.27853 | 4.70988 | 387 ft | 132 kts | 57° |
| 2026-05-07 19:05 | 52.28342 | 4.72225 | 218 ft | 129 kts | 59° |
| 2026-05-07 19:05 | 52.28804 | 4.73435 | 82 ft | 126 kts | 57° |
| 2026-05-07 19:05 | 52.29264 | 4.74632 | -1 ft | 116 kts | 58° |
| 2026-05-07 19:06 | 52.29615 | 4.75553 | -3 ft | 69 kts | 58° |
| 2026-05-07 19:06 | 52.29967 | 4.76451 | -4 ft | 29 kts | 46° |
| 2026-05-07 19:06 | 52.30132 | 4.76626 | -2 ft | 28 kts | 28° |
| 2026-05-07 19:07 | 52.30157 | 4.76648 | -2 ft | 0 kts | 28° |
| 2026-05-07 19:07 | 52.30159 | 4.76650 | -2 ft | 1 kts | 28° |
| 2026-05-07 19:07 | 52.30165 | 4.76655 | -2 ft | 0 kts | 28° |
| 2026-05-07 19:07 | 52.30180 | 4.76668 | -2 ft | 0 kts | 28° |
| 2026-05-07 19:08 | 52.30181 | 4.76669 | -2 ft | 0 kts | 28° |
| 2026-05-07 19:08 | 52.30183 | 4.76671 | -2 ft | 0 kts | 28° |
| 2026-05-07 19:08 | 52.30187 | 4.76675 | -2 ft | 1 kts | 28° |
| 2026-05-07 19:08 | 52.30209 | 4.76695 | -2 ft | 8 kts | 28° |
| 2026-05-07 19:09 | 52.30286 | 4.76740 | -2 ft | 13 kts | 4° |
| 2026-05-07 19:09 | 52.30342 | 4.76662 | -2 ft | 11 kts | 276° |
| 2026-05-07 19:09 | 52.30341 | 4.76555 | -2 ft | 9 kts | 294° |
| 2026-05-07 19:09 | 52.30384 | 4.76488 | -2 ft | 9 kts | 329° |
| 2026-05-07 19:10 | 52.30443 | 4.76429 | -2 ft | 11 kts | 328° |
| 2026-05-07 19:10 | 52.30509 | 4.76363 | -2 ft | 4 kts | 328° |
| 2026-05-07 19:10 | 52.30532 | 4.76331 | -2 ft | 2 kts | 287° |
| 2026-05-07 19:10 | 52.30530 | 4.76308 | -2 ft | 1 kts | 253° |
| 2026-05-07 19:11 | 52.30516 | 4.76272 | -2 ft | 6 kts | 239° |
| 2026-05-07 19:11 | 52.30508 | 4.76251 | -2 ft | 0 kts | 238° |